createdAt,value
2019-02-05T00:01:27.471Z,6.83
2019-02-05T00:04:35.694Z,7.57
2019-02-05T00:07:43.815Z,7.13
2019-02-05T00:10:51.491Z,7.63
2019-02-05T00:13:59.102Z,6.47
2019-02-05T00:17:06.894Z,6.50
2019-02-05T00:20:14.608Z,6.83
2019-02-05T00:23:22.485Z,6.13
2019-02-05T00:26:30.780Z,7.00
2019-02-05T00:29:38.495Z,5.87
2019-02-05T00:33:04.535Z,6.90
2019-02-05T00:36:17.910Z,6.73
2019-02-05T00:39:25.611Z,6.73
2019-02-05T00:42:33.849Z,6.80
2019-02-05T00:45:41.433Z,6.60
2019-02-05T00:48:52.404Z,6.33
2019-02-05T00:52:00.026Z,6.50
2019-02-05T00:55:20.070Z,7.47
2019-02-05T00:58:29.772Z,7.37
2019-02-05T01:01:40.544Z,7.37
2019-02-05T01:04:50.678Z,7.07
2019-02-05T01:08:01.941Z,7.30
2019-02-05T01:11:09.445Z,6.97
2019-02-05T01:14:17.315Z,6.40
2019-02-05T01:17:24.859Z,7.27
2019-02-05T01:20:34.947Z,8.37
2019-02-05T01:23:42.616Z,7.30
2019-02-05T01:26:50.476Z,7.77
2019-02-05T01:29:58.287Z,7.20
2019-02-05T01:33:06.423Z,7.23
2019-02-05T01:36:14.378Z,7.87
2019-02-05T01:39:22.577Z,7.43
2019-02-05T01:45:45.320Z,6.97
2019-02-05T01:48:52.607Z,6.43
2019-02-05T01:52:00.082Z,6.13
2019-02-05T01:55:09.400Z,7.13
2019-02-05T01:58:17.085Z,7.30
2019-02-05T02:01:24.568Z,6.87
2019-02-05T02:04:32.090Z,6.77
2019-02-05T02:07:40.424Z,7.00
2019-02-05T02:10:48.065Z,7.43
2019-02-05T04:24:02.637Z,7.27
2019-02-05T04:27:47.387Z,7.13
2019-02-05T04:32:07.726Z,6.83
2019-02-05T04:36:15.731Z,6.03
2019-02-05T04:40:31.146Z,6.50
2019-02-05T04:44:24.931Z,7.40
2019-02-05T04:48:30.384Z,7.80
2019-02-05T04:52:57.640Z,8.87
2019-02-05T04:57:21.846Z,7.23
2019-02-05T05:01:17.071Z,6.40
2019-02-05T05:04:59.346Z,6.53
2019-02-05T05:08:42.260Z,8.00
2019-02-05T05:11:49.798Z,5.87
2019-02-05T05:14:57.859Z,7.83
2019-02-05T05:18:05.586Z,7.60
2019-02-05T05:21:13.092Z,7.73
2019-02-05T05:24:20.581Z,7.40
2019-02-05T05:27:28.695Z,6.37
2019-02-05T05:30:37.085Z,6.33
2019-02-05T05:33:45.213Z,7.03
2019-02-05T05:36:51.314Z,6.47
2019-02-05T05:39:58.633Z,6.07
2019-02-05T05:43:06.411Z,6.13
2019-02-05T05:46:13.811Z,5.63
2019-02-05T05:49:21.481Z,5.20
2019-02-05T05:52:28.958Z,5.67
2019-02-05T05:55:36.378Z,5.17
2019-02-05T05:58:44.351Z,5.30
2019-02-05T06:01:51.943Z,5.60
2019-02-05T06:04:59.798Z,4.73
2019-02-05T06:08:07.720Z,4.57
2019-02-05T06:11:15.332Z,4.87
2019-02-05T06:14:22.665Z,5.40
2019-02-05T06:17:29.936Z,5.37
2019-02-05T06:20:37.657Z,3.80
2019-02-05T06:23:45.480Z,4.83
2019-02-05T06:26:52.943Z,5.17
2019-02-05T06:30:00.374Z,5.23
2019-02-05T06:33:07.929Z,5.97
2019-02-05T06:36:15.617Z,4.57
2019-02-05T06:39:23.149Z,4.80
2019-02-05T06:42:30.617Z,4.87
2019-02-05T06:45:41.377Z,4.33
2019-02-05T06:48:47.629Z,4.27
2019-02-05T06:51:55.088Z,5.43
2019-02-05T06:55:03.208Z,4.70
2019-02-05T06:58:11.029Z,4.37
2019-02-05T07:01:18.719Z,4.57
2019-02-05T07:04:25.994Z,4.60
2019-02-05T07:07:33.399Z,3.83
2019-02-05T07:10:41.189Z,4.07
2019-02-05T07:13:49.055Z,4.73
2019-02-05T07:16:57.207Z,4.90
2019-02-05T07:20:05.556Z,4.87
2019-02-05T07:23:13.293Z,5.00
2019-02-05T07:26:21.024Z,4.93
2019-02-05T07:29:28.743Z,5.10
2019-02-05T07:32:36.221Z,5.47
2019-02-05T07:35:43.598Z,5.50
2019-02-05T07:38:50.913Z,4.47
2019-02-05T07:41:58.308Z,4.53
2019-02-05T07:45:09.058Z,4.27
2019-02-05T07:48:16.691Z,4.33
2019-02-05T07:51:24.353Z,4.17
2019-02-05T07:54:31.525Z,4.30
2019-02-05T07:57:38.797Z,5.10
2019-02-05T08:00:46.361Z,4.07
2019-02-05T08:03:53.851Z,3.47
2019-02-05T08:07:01.355Z,3.97
2019-02-05T08:10:11.086Z,4.07
2019-02-05T08:13:18.695Z,3.73
2019-02-05T08:16:26.468Z,4.90
2019-02-05T08:19:33.849Z,3.33
2019-02-05T08:22:41.495Z,4.47
2019-02-05T08:25:49.066Z,4.27
2019-02-05T08:28:56.556Z,3.40
2019-02-05T08:32:04.469Z,3.43
2019-02-05T08:35:13.713Z,3.23
2019-02-05T08:38:21.607Z,3.63
2019-02-05T08:41:29.321Z,4.50
2019-02-05T08:44:36.956Z,3.77
2019-02-05T08:47:44.858Z,5.47
2019-02-05T08:50:52.392Z,6.37
2019-02-05T08:53:59.770Z,6.10
2019-02-05T08:57:07.611Z,6.20
2019-02-05T09:00:24.551Z,5.80
2019-02-05T09:03:31.913Z,5.07
2019-02-05T09:06:39.617Z,5.27
2019-02-05T09:09:47.158Z,4.20
2019-02-05T09:12:54.652Z,2.77
2019-02-05T09:16:02.526Z,2.90
2019-02-05T09:19:10.026Z,4.57
2019-02-05T09:22:17.335Z,3.00
2019-02-05T09:25:25.137Z,3.17
2019-02-05T09:28:32.918Z,3.33
2019-02-05T09:31:40.698Z,3.37
2019-02-05T09:34:48.433Z,3.77
2019-02-05T09:37:57.799Z,3.53
2019-02-05T09:41:05.186Z,3.30
2019-02-05T09:44:12.668Z,3.97
2019-02-05T09:47:20.190Z,4.37
2019-02-05T09:50:30.807Z,4.00
2019-02-05T09:53:37.587Z,4.57
2019-02-05T09:56:45.499Z,4.20
2019-02-05T09:59:53.330Z,4.33
2019-02-05T10:03:01.101Z,4.20
2019-02-05T10:06:08.999Z,3.73
2019-02-05T10:09:16.321Z,4.73
2019-02-05T10:12:23.710Z,4.60
2019-02-05T10:15:33.873Z,4.00
2019-02-05T10:18:41.878Z,3.57
2019-02-05T10:21:49.261Z,3.23
2019-02-05T10:24:56.790Z,4.37
2019-02-05T10:28:04.660Z,4.60
2019-02-05T10:31:12.208Z,4.67
2019-02-05T10:34:19.953Z,4.60
2019-02-05T10:37:27.594Z,4.73
2019-02-05T10:40:35.471Z,4.77
2019-02-05T10:43:43.792Z,5.90
2019-02-05T10:46:51.029Z,4.57
2019-02-05T10:49:58.554Z,5.23
2019-02-05T10:53:06.377Z,5.57
2019-02-05T10:56:13.793Z,6.13
2019-02-05T10:59:21.189Z,5.83
2019-02-05T11:02:28.593Z,5.50
2019-02-05T11:05:36.968Z,6.63
2019-02-05T11:08:44.502Z,5.33
2019-02-05T11:11:52.300Z,5.53
2019-02-05T11:14:59.761Z,6.27
2019-02-05T11:18:09.094Z,6.93
2019-02-05T11:21:16.497Z,6.13
2019-02-05T11:24:24.203Z,5.93
2019-02-05T11:27:31.590Z,5.10
2019-02-05T11:30:43.029Z,6.20
2019-02-05T11:33:51.070Z,5.97
2019-02-05T11:36:59.113Z,6.57
2019-02-05T11:40:09.859Z,6.43
2019-02-05T11:43:17.626Z,5.60
2019-02-05T11:46:25.181Z,5.87
2019-02-05T11:49:32.588Z,5.60
2019-02-05T11:52:40.291Z,5.87
2019-02-05T11:55:48.532Z,6.97
2019-02-05T11:58:56.394Z,5.77
2019-02-05T12:02:04.593Z,4.67
2019-02-05T12:05:12.783Z,4.70
2019-02-05T12:08:20.394Z,4.67
2019-02-05T12:11:28.126Z,4.97
2019-02-05T12:14:35.587Z,5.03
2019-02-05T12:17:43.177Z,3.80
2019-02-05T12:20:50.632Z,3.37
2019-02-05T12:23:58.151Z,3.97
2019-02-05T12:27:05.728Z,3.10
2019-02-05T12:30:26.075Z,1.97
2019-02-05T12:33:33.509Z,2.10
2019-02-05T12:36:41.389Z,2.13
2019-02-05T12:39:49.184Z,2.50
2019-02-05T12:42:56.919Z,2.27
2019-02-05T12:46:04.370Z,2.73
2019-02-05T12:49:14.735Z,2.40
2019-02-05T12:52:21.277Z,4.10
2019-02-05T12:55:29.013Z,4.83
2019-02-05T12:58:36.543Z,5.17
2019-02-05T13:01:44.022Z,4.77
2019-02-05T13:04:51.414Z,5.23
2019-02-05T13:07:59.199Z,5.13
2019-02-05T13:11:06.576Z,5.63
2019-02-05T13:14:14.065Z,3.83
2019-02-05T13:17:21.794Z,5.10
2019-02-05T13:20:29.863Z,5.13
2019-02-05T13:23:37.633Z,4.60
2019-02-05T13:26:45.103Z,4.50
2019-02-05T13:29:52.705Z,4.10
2019-02-05T13:33:00.628Z,3.90
2019-02-05T13:36:10.230Z,3.10
2019-02-05T13:39:17.778Z,2.90
2019-02-05T13:42:25.305Z,3.90
2019-02-05T13:45:34.169Z,5.77
2019-02-05T13:48:41.633Z,7.17
2019-02-05T13:51:49.244Z,7.53
2019-02-05T13:54:56.898Z,10.33
2019-02-05T13:58:05.246Z,10.90
2019-02-05T14:01:19.990Z,11.27
2019-02-05T14:04:22.947Z,12.10
2019-02-05T14:07:31.645Z,12.07
2019-02-05T14:10:40.838Z,13.00
2019-02-05T14:13:48.508Z,13.27
2019-02-05T14:16:56.642Z,14.97
2019-02-05T14:20:06.347Z,13.37
2019-02-05T14:23:13.942Z,14.50
2019-02-05T14:26:22.090Z,14.77
2019-02-05T14:29:29.847Z,14.90
2019-02-05T14:32:37.425Z,14.20
2019-02-05T14:35:45.351Z,14.03
2019-02-05T14:38:53.079Z,13.70
2019-02-05T14:42:00.648Z,13.63
2019-02-05T14:45:10.338Z,13.47
2019-02-05T14:48:18.416Z,15.87
2019-02-05T14:51:26.401Z,14.73
2019-02-05T14:54:34.323Z,13.03
2019-02-05T14:57:45.702Z,13.30
2019-02-05T15:00:56.276Z,15.73
2019-02-05T15:04:04.303Z,13.20
2019-02-05T15:07:14.824Z,14.67
2019-02-05T15:10:22.517Z,14.33
2019-02-05T15:13:30.382Z,13.97
2019-02-05T15:16:37.996Z,14.37
2019-02-05T15:19:45.838Z,13.90
2019-02-05T15:22:54.231Z,14.43
2019-02-05T15:26:01.821Z,15.20
2019-02-05T15:29:09.746Z,14.70
2019-02-05T15:32:37.114Z,15.97
2019-02-05T15:35:54.734Z,16.90
2019-02-05T15:39:07.070Z,15.40
2019-02-05T15:42:14.867Z,15.43
2019-02-05T15:45:22.685Z,15.33
2019-02-05T15:48:30.320Z,16.30
2019-02-05T15:51:38.485Z,19.03
2019-02-05T15:54:45.903Z,17.57
2019-02-05T15:57:53.343Z,17.00
2019-02-05T16:01:00.933Z,19.07
2019-02-05T16:04:08.473Z,18.43
2019-02-05T16:07:16.143Z,16.77
2019-02-05T16:10:23.976Z,17.27
2019-02-05T16:13:31.751Z,14.07
2019-02-05T16:16:39.359Z,11.37
2019-02-05T16:19:46.985Z,11.40
2019-02-05T16:22:54.990Z,10.70
2019-02-05T16:26:02.685Z,12.27
2019-02-05T16:29:10.811Z,13.13
2019-02-05T16:32:18.343Z,14.70
2019-02-05T16:35:26.270Z,14.47
2019-02-05T16:38:34.064Z,16.07
2019-02-05T16:41:42.045Z,16.53
2019-02-05T16:44:49.553Z,15.37
2019-02-05T16:47:57.562Z,14.40
2019-02-05T16:51:05.853Z,17.90
2019-02-05T16:54:13.934Z,16.63
2019-02-05T16:57:21.784Z,16.47
2019-02-05T17:00:31.911Z,18.20
2019-02-05T17:03:42.909Z,18.63
2019-02-05T17:06:50.839Z,17.77
2019-02-05T17:09:59.646Z,20.90
2019-02-05T17:13:07.469Z,18.90
2019-02-05T17:16:15.112Z,18.53
2019-02-05T17:19:22.801Z,22.43
2019-02-05T17:22:30.714Z,19.63
2019-02-05T17:25:38.300Z,20.87
2019-02-05T17:28:45.876Z,19.87
2019-02-05T17:31:53.714Z,21.23
2019-02-05T17:35:01.101Z,18.23
2019-02-05T17:38:10.030Z,18.53
2019-02-05T17:41:17.985Z,16.20
2019-02-05T17:44:26.088Z,15.73
2019-02-05T17:47:34.045Z,16.27
2019-02-05T17:50:42.064Z,16.77
2019-02-05T17:53:50.627Z,14.50
2019-02-05T17:56:59.357Z,16.13
2019-02-05T18:00:12.730Z,14.80
2019-02-05T18:03:20.415Z,13.00
2019-02-05T18:06:28.867Z,14.67
2019-02-05T18:09:37.252Z,14.27
2019-02-05T18:12:46.132Z,13.43
2019-02-05T18:15:53.908Z,14.20
2019-02-05T18:19:02.365Z,15.43
2019-02-05T18:22:10.244Z,15.17
2019-02-05T18:25:19.076Z,13.17
2019-02-05T18:28:27.020Z,12.70
2019-02-05T18:31:35.529Z,12.37
2019-02-05T18:34:45.737Z,12.80
2019-02-05T18:37:56.843Z,12.27
2019-02-05T18:41:04.691Z,12.33
2019-02-05T18:44:12.994Z,12.47
2019-02-05T18:47:21.094Z,10.53
2019-02-05T18:50:28.860Z,10.80
2019-02-05T18:53:37.189Z,10.37
2019-02-05T18:56:44.958Z,11.40
2019-02-05T18:59:53.874Z,10.83
2019-02-05T19:03:01.674Z,10.37
2019-02-05T19:06:09.557Z,8.97
2019-02-05T19:09:17.341Z,10.23
2019-02-05T19:12:25.166Z,10.70
2019-02-05T19:15:34.750Z,10.77
2019-02-05T19:18:43.130Z,10.50
2019-02-05T19:21:50.580Z,11.10
2019-02-05T19:25:01.610Z,11.67
2019-02-05T19:28:13.810Z,10.70
2019-02-05T19:31:31.175Z,12.37
2019-02-05T19:34:38.981Z,12.17
2019-02-05T19:37:48.478Z,10.67
2019-02-05T19:40:58.275Z,12.10
2019-02-05T19:44:05.835Z,14.40
2019-02-05T19:47:25.128Z,12.07
2019-02-05T19:50:33.038Z,14.43
2019-02-05T19:53:40.800Z,12.77
2019-02-05T19:56:50.435Z,12.00
2019-02-05T19:59:58.382Z,13.67
2019-02-05T20:03:06.501Z,15.07
2019-02-05T20:06:14.701Z,13.23
2019-02-05T20:09:22.443Z,16.43
2019-02-05T20:12:31.094Z,14.60
2019-02-05T20:15:39.090Z,15.80
2019-02-05T20:18:46.798Z,15.30
2019-02-05T20:21:54.832Z,15.23
2019-02-05T20:25:03.641Z,12.37
2019-02-05T20:28:11.445Z,13.07
2019-02-05T20:31:18.780Z,14.43
2019-02-05T20:34:26.771Z,14.57
2019-02-05T20:37:35.052Z,14.37
2019-02-05T20:40:43.389Z,11.87
2019-02-05T20:43:51.227Z,11.73
2019-02-05T20:46:59.484Z,13.40
2019-02-05T20:50:14.296Z,12.53
2019-02-05T20:53:34.250Z,13.80
2019-02-05T20:56:48.609Z,13.23
2019-02-05T20:59:56.886Z,11.77
2019-02-05T21:03:05.823Z,13.23
2019-02-05T21:06:13.845Z,11.70
2019-02-05T21:09:21.654Z,13.70
2019-02-05T21:12:29.201Z,11.63
2019-02-05T21:15:37.099Z,11.03
2019-02-05T21:18:44.575Z,11.80
2019-02-05T21:21:52.355Z,11.43
2019-02-05T21:25:00.602Z,11.83
2019-02-05T21:28:08.566Z,10.90
2019-02-05T21:31:16.774Z,9.50
2019-02-05T21:34:24.439Z,12.23
2019-02-05T21:37:32.300Z,10.77
2019-02-05T21:40:39.830Z,10.33
2019-02-05T21:43:50.055Z,12.67
2019-02-05T21:47:00.719Z,12.80
2019-02-05T21:50:11.601Z,11.67
2019-02-05T21:53:21.029Z,11.63
2019-02-05T21:56:34.789Z,11.23
2019-02-05T21:59:42.703Z,11.40
2019-02-05T22:02:50.514Z,11.97
2019-02-05T22:05:58.259Z,11.87
2019-02-05T22:09:10.275Z,12.90
2019-02-05T22:12:19.069Z,13.30
2019-02-05T22:15:29.554Z,11.83
2019-02-05T22:18:37.009Z,12.70
2019-02-05T22:21:45.316Z,13.17
2019-02-05T22:24:52.980Z,13.17
2019-02-05T22:28:01.318Z,13.90
2019-02-05T22:31:09.274Z,13.97
2019-02-05T22:34:17.129Z,13.27
2019-02-05T22:37:24.911Z,13.37
2019-02-05T22:40:32.606Z,12.50
2019-02-05T22:43:40.705Z,11.90
2019-02-05T22:46:48.642Z,12.13
2019-02-05T22:49:57.690Z,13.63
2019-02-05T22:53:06.840Z,11.90
2019-02-05T22:56:14.872Z,11.23
2019-02-05T22:59:22.722Z,13.13
2019-02-05T23:02:30.515Z,12.23
2019-02-05T23:06:41.867Z,12.07
2019-02-05T23:10:29.310Z,11.67
2019-02-05T23:13:37.633Z,13.27
2019-02-05T23:16:45.683Z,13.23
2019-02-05T23:19:53.771Z,11.83
2019-02-05T23:23:04.464Z,13.40
2019-02-05T23:26:12.344Z,12.53
2019-02-05T23:29:20.159Z,13.37
2019-02-05T23:32:27.653Z,12.27
2019-02-05T23:35:35.350Z,12.97
2019-02-05T23:38:45.119Z,12.50
2019-02-05T23:41:53.459Z,11.87
2019-02-05T23:45:01.483Z,12.17
2019-02-05T23:48:09.173Z,13.33
2019-02-05T23:51:16.956Z,13.23
2019-02-05T23:54:24.895Z,12.03
2019-02-05T23:57:32.818Z,12.23
